Time;durP1;ratioP1;P1;durP2;ratioP2;P2;SDS_P1;SDS_P2;PMS_P1;PMS_P2;Temp;Humidity;BMP_temperature;BMP_pressure;BME280_temperature;BME280_humidity;BME280_pressure;Samples;Min_cycle;Max_cycle;Signal;HPM_P1;HPM_P2
2021/06/30 00:01:10;;;;;;;8.27;3.28;;;16.60;99.90;;;;;;5043317;28;20033;-73
2021/06/30 00:03:36;;;;;;;6.00;3.00;;;16.80;99.90;;;;;;5058712;28;20037;-72
2021/06/30 00:06:02;;;;;;;5.32;2.83;;;16.70;99.90;;;;;;5042908;28;20033;-73
2021/06/30 00:08:28;;;;;;;7.78;3.00;;;16.70;99.90;;;;;;5043739;28;20032;-72
2021/06/30 00:10:53;;;;;;;5.35;3.33;;;16.70;99.90;;;;;;5043656;28;20441;-72
2021/06/30 00:13:21;;;;;;;6.55;4.20;;;16.80;99.90;;;;;;5043712;28;20037;-74
2021/06/30 00:15:47;;;;;;;9.20;4.35;;;16.80;99.90;;;;;;5044258;28;20041;-74
2021/06/30 00:18:13;;;;;;;7.07;2.88;;;16.80;99.90;;;;;;5044144;28;20033;-72
2021/06/30 00:20:39;;;;;;;6.82;3.72;;;16.80;99.90;;;;;;5042709;28;20041;-72
2021/06/30 00:23:05;;;;;;;9.25;4.68;;;16.80;99.90;;;;;;5043687;28;20044;-74
2021/06/30 00:25:31;;;;;;;8.75;4.55;;;16.80;99.90;;;;;;5043625;28;20026;-73
2021/06/30 00:27:57;;;;;;;7.38;4.20;;;16.80;99.90;;;;;;5043045;28;20061;-73
2021/06/30 00:30:23;;;;;;;19.65;5.35;;;16.80;99.90;;;;;;5043541;28;20025;-72
2021/06/30 00:32:49;;;;;;;6.13;3.90;;;16.80;99.90;;;;;;5043748;28;20040;-73
2021/06/30 00:35:16;;;;;;;10.23;4.18;;;16.80;99.90;;;;;;5043728;28;20026;-72
2021/06/30 00:37:42;;;;;;;11.88;5.30;;;16.80;99.90;;;;;;5043922;28;20077;-76
2021/06/30 00:40:10;;;;;;;12.32;3.95;;;16.80;99.90;;;;;;5043602;28;20068;-72
2021/06/30 00:42:36;;;;;;;10.25;4.63;;;16.70;99.90;;;;;;5043709;28;20029;-73
2021/06/30 00:45:07;;;;;;;8.50;4.57;;;16.80;99.90;;;;;;5043381;28;20095;-74
2021/06/30 00:47:33;;;;;;;8.63;4.88;;;16.70;99.90;;;;;;5043781;28;20041;-74
2021/06/30 00:49:59;;;;;;;10.02;5.55;;;16.70;99.90;;;;;;5042995;28;20041;-74
2021/06/30 00:52:25;;;;;;;9.40;4.80;;;16.70;99.90;;;;;;5043574;28;20029;-74
2021/06/30 00:54:51;;;;;;;11.30;5.88;;;16.70;99.90;;;;;;5045505;28;20045;-75
2021/06/30 00:57:18;;;;;;;13.38;6.65;;;16.70;99.90;;;;;;5062440;28;20027;-74
2021/06/30 00:59:45;;;;;;;12.27;4.90;;;16.70;99.90;;;;;;5059126;28;20022;-74
2021/06/30 01:02:11;;;;;;;10.05;5.72;;;16.60;99.90;;;;;;5045674;28;20033;-73
2021/06/30 01:04:37;;;;;;;15.55;6.38;;;16.70;99.90;;;;;;5047122;28;20036;-74
2021/06/30 01:07:03;;;;;;;10.85;6.50;;;16.70;99.90;;;;;;5046823;28;20022;-74
2021/06/30 01:09:30;;;;;;;15.88;7.05;;;16.70;99.90;;;;;;5046507;28;20086;-72
2021/06/30 01:11:58;;;;;;;15.02;6.82;;;16.70;99.90;;;;;;5046952;28;20381;-75
2021/06/30 01:14:25;;;;;;;13.85;5.93;;;16.70;99.90;;;;;;5046684;28;20034;-75
2021/06/30 01:16:52;;;;;;;12.80;6.80;;;16.70;99.90;;;;;;5045841;28;20037;-73
2021/06/30 01:19:19;;;;;;;19.17;7.90;;;16.70;99.90;;;;;;5045728;28;20026;-74
2021/06/30 01:21:45;;;;;;;16.48;7.53;;;16.70;99.90;;;;;;5046013;28;20450;-74
2021/06/30 01:24:11;;;;;;;19.30;8.20;;;16.70;99.90;;;;;;5046857;28;20029;-74
2021/06/30 01:26:37;;;;;;;21.00;7.72;;;16.70;99.90;;;;;;5047000;28;20052;-73
2021/06/30 01:29:03;;;;;;;16.17;8.43;;;16.70;99.90;;;;;;5061696;28;20026;-71
2021/06/30 01:31:28;;;;;;;12.55;6.68;;;16.70;99.90;;;;;;5046355;28;20026;-74
2021/06/30 01:33:54;;;;;;;14.30;6.90;;;16.70;99.90;;;;;;5061879;28;20021;-74
2021/06/30 01:36:19;;;;;;;24.02;8.40;;;16.70;99.90;;;;;;5046210;28;20116;-73
2021/06/30 01:38:45;;;;;;;18.08;6.82;;;16.70;99.90;;;;;;5045854;28;20036;-74
2021/06/30 01:41:14;;;;;;;15.98;7.07;;;16.70;99.90;;;;;;5046416;28;20080;-73
2021/06/30 01:43:40;;;;;;;18.25;7.45;;;16.60;99.90;;;;;;5061596;28;20029;-74
2021/06/30 01:46:06;;;;;;;16.73;7.00;;;16.60;99.90;;;;;;5044347;28;20041;-74
2021/06/30 01:48:32;;;;;;;12.13;6.70;;;16.50;99.90;;;;;;5045985;28;20079;-72
2021/06/30 01:50:59;;;;;;;18.08;7.95;;;16.50;99.90;;;;;;5045697;28;20029;-74
2021/06/30 01:53:24;;;;;;;27.33;9.63;;;16.60;99.90;;;;;;5045194;28;20049;-72
2021/06/30 01:55:50;;;;;;;22.58;10.20;;;16.50;99.90;;;;;;5045317;28;20025;-74
2021/06/30 01:58:21;;;;;;;33.95;9.23;;;16.50;99.90;;;;;;5046053;28;20075;-75
2021/06/30 02:00:51;;;;;;;27.17;11.13;;;16.50;99.90;;;;;;5043754;28;20529;-73
2021/06/30 02:03:17;;;;;;;20.65;8.40;;;16.50;99.90;;;;;;5045340;28;20061;-74
2021/06/30 02:05:43;;;;;;;22.77;10.05;;;16.50;99.90;;;;;;5043372;28;20029;-74
2021/06/30 02:08:08;;;;;;;23.50;9.20;;;16.60;99.90;;;;;;5061353;28;20482;-74
2021/06/30 02:10:34;;;;;;;24.55;9.15;;;16.50;99.90;;;;;;5060917;28;20055;-75
2021/06/30 02:13:00;;;;;;;28.92;9.38;;;16.50;99.90;;;;;;5045444;28;20500;-74
2021/06/30 02:15:29;;;;;;;21.65;9.85;;;16.60;99.90;;;;;;5044854;28;20491;-73
2021/06/30 02:17:57;;;;;;;21.65;9.82;;;16.60;99.90;;;;;;5045807;28;20043;-73
2021/06/30 02:20:24;;;;;;;28.45;10.50;;;16.60;99.90;;;;;;5045300;28;20030;-73
2021/06/30 02:22:52;;;;;;;25.20;10.23;;;16.60;99.90;;;;;;5045571;28;20033;-75
2021/06/30 02:25:23;;;;;;;35.17;12.60;;;16.60;99.90;;;;;;5045768;28;20018;-74
2021/06/30 02:27:51;;;;;;;33.42;12.45;;;16.60;99.90;;;;;;5045364;28;20048;-76
2021/06/30 02:30:29;;;;;;;36.95;12.30;;;16.70;99.90;;;;;;5043764;28;20032;-77
2021/06/30 02:32:56;;;;;;;30.95;12.70;;;16.60;99.90;;;;;;5045836;28;20032;-74
2021/06/30 02:35:24;;;;;;;27.27;12.40;;;16.70;99.90;;;;;;5045232;28;20022;-75
2021/06/30 02:37:53;;;;;;;39.67;13.23;;;16.70;99.90;;;;;;5045381;28;20030;-75
2021/06/30 02:40:23;;;;;;;37.67;12.20;;;16.60;99.90;;;;;;5044938;28;20037;-76
2021/06/30 02:42:49;;;;;;;41.30;14.80;;;16.70;99.90;;;;;;5044622;28;20022;-75
2021/06/30 02:45:17;;;;;;;34.15;14.32;;;16.70;99.90;;;;;;5060340;28;20033;-75
2021/06/30 02:47:45;;;;;;;43.55;13.32;;;16.70;99.90;;;;;;5044962;28;20068;-76
2021/06/30 02:50:13;;;;;;;37.35;13.55;;;16.70;99.90;;;;;;5045242;28;20026;-75
2021/06/30 02:52:39;;;;;;;34.67;13.38;;;16.70;99.90;;;;;;5043448;28;20049;-75
2021/06/30 02:55:06;;;;;;;33.45;12.68;;;16.70;99.90;;;;;;5044483;28;20025;-74
2021/06/30 02:57:32;;;;;;;42.13;14.00;;;16.70;99.90;;;;;;5045199;28;20029;-73
2021/06/30 02:59:58;;;;;;;27.00;13.02;;;16.70;99.90;;;;;;5044763;28;20389;-74
2021/06/30 03:02:24;;;;;;;32.80;13.48;;;16.80;99.90;;;;;;5044148;28;20033;-75
2021/06/30 03:04:50;;;;;;;41.55;13.15;;;16.80;99.90;;;;;;5044832;28;20033;-75
2021/06/30 03:07:15;;;;;;;39.22;14.50;;;16.80;99.90;;;;;;5060345;28;20051;-74
2021/06/30 03:09:41;;;;;;;38.28;14.15;;;16.80;99.90;;;;;;5044584;28;20531;-75
2021/06/30 03:12:07;;;;;;;37.90;13.57;;;16.80;99.90;;;;;;5044632;28;20090;-74
2021/06/30 03:14:33;;;;;;;37.92;14.88;;;16.90;99.90;;;;;;5044495;28;20060;-74
2021/06/30 03:16:59;;;;;;;32.65;14.50;;;16.90;99.90;;;;;;5043508;28;20033;-75
2021/06/30 03:19:25;;;;;;;45.95;13.70;;;16.90;99.90;;;;;;5044199;28;20104;-74
2021/06/30 03:21:50;;;;;;;60.25;16.60;;;17.00;99.90;;;;;;5044744;28;20034;-75
2021/06/30 03:24:16;;;;;;;40.85;13.52;;;16.90;99.90;;;;;;5043960;28;20032;-75
2021/06/30 03:26:42;;;;;;;33.15;13.30;;;16.90;99.90;;;;;;5044390;28;20034;-74
2021/06/30 03:29:07;;;;;;;28.67;13.73;;;17.00;99.90;;;;;;5043019;28;20494;-75
2021/06/30 03:31:33;;;;;;;36.08;13.40;;;16.90;99.90;;;;;;5043878;28;20021;-73
2021/06/30 03:34:00;;;;;;;39.08;14.60;;;17.00;99.90;;;;;;5044372;28;20022;-75
2021/06/30 03:36:26;;;;;;;42.25;13.73;;;17.00;99.90;;;;;;5043547;28;20029;-74
2021/06/30 03:38:51;;;;;;;40.38;11.98;;;17.00;99.90;;;;;;5043974;28;20029;-74
2021/06/30 03:41:17;;;;;;;37.63;12.52;;;17.10;99.90;;;;;;5043344;28;20461;-72
2021/06/30 03:43:43;;;;;;;30.80;11.98;;;17.10;99.90;;;;;;5044652;28;20105;-74
2021/06/30 03:46:09;;;;;;;44.30;11.95;;;17.10;99.90;;;;;;5044013;28;20026;-75
2021/06/30 03:48:35;;;;;;;30.48;12.50;;;17.10;99.90;;;;;;5042452;28;20359;-74
2021/06/30 03:51:01;;;;;;;30.70;11.57;;;17.10;99.90;;;;;;5043980;28;20025;-74
2021/06/30 03:53:27;;;;;;;36.88;10.90;;;17.10;99.90;;;;;;5043387;28;20104;-74
2021/06/30 03:55:52;;;;;;;37.58;11.30;;;17.10;99.90;;;;;;5044006;28;20025;-74
2021/06/30 03:58:18;;;;;;;53.03;12.77;;;17.20;99.90;;;;;;5042256;28;20029;-74
2021/06/30 04:00:44;;;;;;;30.08;11.80;;;17.20;99.90;;;;;;5043335;28;20120;-73
2021/06/30 04:03:09;;;;;;;29.15;10.13;;;17.20;99.90;;;;;;5042674;28;20413;-74
2021/06/30 04:05:35;;;;;;;37.80;13.18;;;17.20;99.90;;;;;;5043091;28;20049;-73
2021/06/30 04:08:01;;;;;;;26.23;10.73;;;17.20;99.90;;;;;;5043772;28;20107;-74
2021/06/30 04:10:26;;;;;;;30.58;11.82;;;17.10;99.90;;;;;;5043790;28;20029;-73
2021/06/30 04:12:52;;;;;;;27.48;10.40;;;17.20;99.90;;;;;;5043900;28;20060;-73
2021/06/30 04:15:18;;;;;;;21.95;10.32;;;17.20;99.90;;;;;;5044016;28;20029;-73
2021/06/30 04:17:43;;;;;;;29.40;10.85;;;17.20;99.90;;;;;;5043930;28;20025;-75
2021/06/30 04:20:10;;;;;;;27.05;10.50;;;17.20;99.90;;;;;;5042556;28;20041;-74
2021/06/30 04:22:36;;;;;;;22.35;10.38;;;17.20;99.90;;;;;;5044175;28;20060;-73
2021/06/30 04:25:06;;;;;;;23.98;11.13;;;17.20;99.90;;;;;;5059170;28;20105;-74
2021/06/30 04:27:32;;;;;;;22.23;9.32;;;17.20;99.90;;;;;;5043251;28;20108;-75
2021/06/30 04:29:58;;;;;;;23.83;9.43;;;17.20;99.90;;;;;;5047247;28;20029;-74
2021/06/30 04:32:24;;;;;;;27.67;11.20;;;17.20;99.90;;;;;;5047503;28;20056;-74
2021/06/30 04:34:50;;;;;;;29.92;11.25;;;17.20;99.90;;;;;;5047308;28;20049;-73
2021/06/30 04:37:15;;;;;;;40.70;11.57;;;17.20;99.90;;;;;;5047732;28;20045;-74
2021/06/30 04:39:41;;;;;;;30.17;10.60;;;17.20;99.90;;;;;;5047823;28;20025;-74
2021/06/30 04:42:07;;;;;;;31.60;11.77;;;17.20;99.90;;;;;;5049427;28;20041;-73
2021/06/30 04:44:33;;;;;;;25.70;11.02;;;17.20;99.90;;;;;;5047623;28;20034;-73
2021/06/30 04:47:02;;;;;;;25.90;11.68;;;17.20;99.90;;;;;;5047404;28;20053;-74
2021/06/30 04:49:28;;;;;;;35.90;12.25;;;17.20;99.90;;;;;;5047362;28;20025;-74
2021/06/30 04:51:54;;;;;;;22.55;11.13;;;17.20;99.90;;;;;;5047380;28;20025;-73
2021/06/30 04:54:21;;;;;;;25.17;10.10;;;17.20;99.90;;;;;;5046615;28;20105;-74
2021/06/30 04:56:47;;;;;;;35.35;9.57;;;17.20;99.90;;;;;;5045368;28;20030;-75
2021/06/30 04:59:13;;;;;;;32.53;11.38;;;17.20;99.90;;;;;;5047079;28;20029;-74
2021/06/30 05:01:39;;;;;;;25.85;9.63;;;17.10;99.90;;;;;;5046631;28;20057;-74
2021/06/30 05:04:04;;;;;;;32.60;10.77;;;17.20;99.90;;;;;;5046758;28;20021;-74
2021/06/30 05:06:30;;;;;;;31.02;9.93;;;17.20;99.90;;;;;;5045746;28;20072;-74
2021/06/30 05:08:56;;;;;;;21.05;9.43;;;17.20;99.90;;;;;;5061322;28;20485;-74
2021/06/30 05:11:21;;;;;;;17.60;9.20;;;17.20;99.90;;;;;;5046806;28;20029;-75
2021/06/30 05:13:47;;;;;;;13.65;7.32;;;17.20;99.90;;;;;;5046539;28;20022;-75
2021/06/30 05:16:13;;;;;;;19.42;8.70;;;17.20;99.90;;;;;;5045435;28;20022;-74
2021/06/30 05:18:38;;;;;;;17.45;8.43;;;17.20;99.90;;;;;;5047172;28;20040;-75
2021/06/30 05:21:04;;;;;;;23.83;8.70;;;17.20;99.90;;;;;;5046115;28;20067;-74
2021/06/30 05:23:30;;;;;;;21.55;8.85;;;17.10;99.90;;;;;;5046663;28;20037;-75
2021/06/30 05:25:56;;;;;;;17.02;8.18;;;17.10;99.90;;;;;;5046392;28;20033;-74
2021/06/30 05:28:23;;;;;;;15.57;7.47;;;17.10;99.90;;;;;;5061726;28;20029;-75
2021/06/30 05:30:49;;;;;;;20.15;8.82;;;17.10;99.90;;;;;;5045493;28;20029;-75
2021/06/30 05:33:15;;;;;;;20.80;8.88;;;17.10;99.90;;;;;;5044962;28;20041;-74
2021/06/30 05:35:41;;;;;;;18.80;8.10;;;17.10;99.90;;;;;;5046201;28;20029;-75
2021/06/30 05:38:06;;;;;;;19.63;8.90;;;17.10;99.90;;;;;;5045341;28;20079;-74
2021/06/30 05:40:32;;;;;;;18.42;8.57;;;17.20;99.90;;;;;;5046441;28;20060;-73
2021/06/30 05:43:00;;;;;;;14.65;7.57;;;17.10;99.90;;;;;;5046182;28;20029;-76
2021/06/30 05:45:26;;;;;;;18.15;7.75;;;17.10;99.90;;;;;;5045058;28;20422;-73
2021/06/30 05:47:52;;;;;;;27.75;9.13;;;17.10;99.90;;;;;;5046640;28;20045;-74
2021/06/30 05:50:20;;;;;;;16.40;7.57;;;17.20;99.90;;;;;;5061014;28;20037;-74
2021/06/30 05:52:46;;;;;;;19.80;8.68;;;17.20;99.90;;;;;;5046060;28;20021;-71
2021/06/30 05:55:12;;;;;;;17.10;8.60;;;17.20;99.90;;;;;;5045003;28;20473;-75
2021/06/30 05:57:39;;;;;;;16.27;7.65;;;17.10;99.90;;;;;;5060807;28;20048;-75
2021/06/30 06:00:07;;;;;;;18.05;7.20;;;17.10;99.90;;;;;;5045632;28;20037;-75
2021/06/30 06:02:33;;;;;;;18.65;9.48;;;17.10;99.90;;;;;;5044662;28;20053;-75
2021/06/30 06:04:58;;;;;;;15.25;8.35;;;17.10;99.90;;;;;;5044789;28;20033;-74
2021/06/30 06:07:24;;;;;;;28.65;8.13;;;17.10;99.90;;;;;;5045333;28;20287;-74
2021/06/30 06:09:49;;;;;;;17.25;7.50;;;17.10;99.90;;;;;;5045627;28;20030;-75
2021/06/30 06:12:15;;;;;;;24.73;7.80;;;17.10;99.90;;;;;;5044701;28;20026;-75
2021/06/30 06:14:40;;;;;;;27.35;8.10;;;17.20;99.90;;;;;;5045762;28;20085;-74
2021/06/30 06:17:06;;;;;;;15.52;7.45;;;17.10;99.90;;;;;;5043792;28;20036;-75
2021/06/30 06:19:33;;;;;;;26.90;8.75;;;17.10;99.90;;;;;;5045247;28;20026;-77
2021/06/30 06:21:59;;;;;;;17.65;7.45;;;17.10;99.90;;;;;;5045362;28;20083;-75
2021/06/30 06:24:25;;;;;;;29.25;9.50;;;17.10;99.90;;;;;;5044702;28;20037;-76
2021/06/30 06:26:51;;;;;;;16.60;8.18;;;17.00;99.90;;;;;;5044606;28;20059;-74
2021/06/30 06:29:17;;;;;;;19.38;9.35;;;17.00;99.90;;;;;;5041073;28;20026;-77
2021/06/30 06:31:47;;;;;;;27.88;9.93;;;17.00;99.90;;;;;;5040892;28;20034;-74
2021/06/30 06:34:20;;;;;;;24.77;10.25;;;17.00;99.90;;;;;;5039841;28;20021;-74
2021/06/30 06:36:53;;;;;;;28.15;9.02;;;17.00;99.90;;;;;;5042714;28;20029;-78
2021/06/30 06:39:20;;;;;;;26.40;11.00;;;17.00;99.90;;;;;;5043782;28;20041;-78
2021/06/30 06:41:47;;;;;;;27.80;10.73;;;17.00;99.90;;;;;;5043887;28;20037;-75
2021/06/30 06:44:13;;;;;;;17.50;9.07;;;17.00;99.90;;;;;;5045388;28;20052;-77
2021/06/30 06:46:39;;;;;;;15.52;7.65;;;16.90;99.90;;;;;;5045075;28;20034;-72
2021/06/30 06:49:09;;;;;;;21.95;8.02;;;16.90;99.90;;;;;;5043635;28;20033;-74
2021/06/30 06:51:38;;;;;;;14.60;7.20;;;16.90;99.90;;;;;;5044672;28;20025;-75
2021/06/30 06:54:05;;;;;;;16.70;7.85;;;16.90;99.90;;;;;;5043648;28;20045;-73
2021/06/30 06:56:31;;;;;;;15.93;8.38;;;17.00;99.90;;;;;;5044881;28;20057;-75
2021/06/30 06:58:56;;;;;;;18.63;7.97;;;17.00;99.90;;;;;;5044275;28;20022;-77
2021/06/30 07:01:23;;;;;;;14.32;7.80;;;17.00;99.90;;;;;;5045017;28;20121;-72
2021/06/30 07:03:49;;;;;;;21.75;8.23;;;17.00;99.90;;;;;;5043508;28;20021;-73
2021/06/30 07:06:15;;;;;;;15.93;6.70;;;17.10;99.90;;;;;;5044381;28;20025;-74
2021/06/30 07:08:42;;;;;;;15.65;7.30;;;17.00;99.90;;;;;;5044676;28;20047;-75
2021/06/30 07:11:11;;;;;;;16.63;7.65;;;17.10;99.90;;;;;;5043643;28;20025;-77
2021/06/30 07:13:40;;;;;;;16.55;6.65;;;17.20;99.90;;;;;;5042423;28;20077;-79
2021/06/30 07:16:07;;;;;;;12.85;6.63;;;17.20;99.90;;;;;;5045245;28;20032;-78
2021/06/30 07:18:34;;;;;;;16.50;7.00;;;17.20;99.90;;;;;;5041504;28;20056;-77
2021/06/30 07:21:01;;;;;;;16.42;8.20;;;17.10;99.90;;;;;;5043454;28;20056;-79
2021/06/30 07:23:28;;;;;;;20.23;7.25;;;17.10;99.90;;;;;;5043886;28;20576;-76
2021/06/30 07:25:54;;;;;;;17.92;6.93;;;17.10;99.90;;;;;;5043917;28;20025;-74
2021/06/30 07:28:20;;;;;;;11.52;5.82;;;17.00;99.90;;;;;;5044309;28;20021;-79
2021/06/30 07:30:46;;;;;;;17.02;7.85;;;17.10;99.90;;;;;;5044275;28;20029;-74
2021/06/30 07:33:12;;;;;;;21.67;6.47;;;17.10;99.90;;;;;;5044337;28;20025;-74
2021/06/30 07:35:38;;;;;;;20.63;7.00;;;17.10;99.90;;;;;;5043025;28;20036;-76
2021/06/30 07:38:04;;;;;;;14.43;7.20;;;17.10;99.90;;;;;;5044421;28;20056;-76
2021/06/30 07:40:30;;;;;;;18.60;7.95;;;17.10;99.90;;;;;;5041326;28;20081;-77
2021/06/30 07:42:56;;;;;;;27.25;8.05;;;17.10;99.90;;;;;;5042333;28;20084;-75
2021/06/30 07:45:22;;;;;;;10.80;6.18;;;17.20;99.90;;;;;;5041832;28;20105;-76
2021/06/30 07:47:48;;;;;;;20.52;7.13;;;17.20;99.90;;;;;;5041523;28;20022;-78
2021/06/30 07:50:16;;;;;;;14.25;6.70;;;17.30;99.90;;;;;;5041381;28;20030;-80
2021/06/30 07:52:44;;;;;;;16.70;6.45;;;17.30;99.90;;;;;;5040599;28;20128;-76
2021/06/30 07:55:10;;;;;;;17.83;7.65;;;17.30;99.90;;;;;;5042654;28;20493;-78
2021/06/30 07:57:36;;;;;;;15.82;7.38;;;17.40;99.90;;;;;;5041849;28;20576;-77
2021/06/30 08:00:03;;;;;;;22.77;5.75;;;17.40;99.90;;;;;;5042970;28;20020;-75
2021/06/30 08:02:29;;;;;;;11.20;5.93;;;17.40;99.90;;;;;;5043528;28;20025;-75
2021/06/30 08:04:54;;;;;;;15.10;6.68;;;17.40;99.90;;;;;;5046834;28;20029;-76
2021/06/30 08:07:22;;;;;;;16.30;6.90;;;17.40;99.90;;;;;;5063323;28;20029;-78
2021/06/30 08:09:48;;;;;;;13.77;6.97;;;17.40;99.90;;;;;;5047489;28;20091;-79
2021/06/30 08:12:14;;;;;;;21.33;7.93;;;17.50;99.90;;;;;;5047918;28;20032;-77
2021/06/30 08:14:39;;;;;;;10.95;6.35;;;17.50;99.90;;;;;;5047696;28;20061;-77
2021/06/30 08:17:05;;;;;;;11.88;5.60;;;17.40;99.90;;;;;;5062619;28;20029;-76
2021/06/30 08:19:31;;;;;;;12.38;5.88;;;17.50;99.90;;;;;;5046022;28;20432;-77
2021/06/30 08:21:56;;;;;;;14.27;6.70;;;17.50;99.90;;;;;;5047157;28;20034;-76
2021/06/30 08:24:22;;;;;;;16.10;6.10;;;17.50;99.90;;;;;;5047387;28;20072;-76
2021/06/30 08:26:48;;;;;;;12.27;7.07;;;17.40;99.90;;;;;;5045452;28;20048;-73
2021/06/30 08:29:13;;;;;;;15.13;7.68;;;17.40;99.90;;;;;;5047466;28;20029;-75
2021/06/30 08:31:39;;;;;;;10.63;6.18;;;17.40;99.90;;;;;;5047479;28;20509;-74
2021/06/30 08:34:08;;;;;;;11.75;5.88;;;17.30;99.90;;;;;;5047360;28;20032;-77
2021/06/30 08:36:34;;;;;;;11.40;5.75;;;17.30;99.90;;;;;;5045225;28;20789;-77
2021/06/30 08:39:00;;;;;;;25.23;8.00;;;17.30;99.90;;;;;;5045377;28;20100;-75
2021/06/30 08:41:27;;;;;;;14.18;6.95;;;17.40;99.90;;;;;;5046096;28;20041;-74
2021/06/30 08:43:52;;;;;;;11.20;5.78;;;17.40;99.90;;;;;;5046172;28;20060;-76
2021/06/30 08:46:20;;;;;;;21.83;6.35;;;17.60;99.90;;;;;;5046906;28;20034;-77
2021/06/30 08:48:49;;;;;;;13.57;6.78;;;17.60;99.90;;;;;;5046062;28;20103;-75
2021/06/30 08:51:23;;;;;;;17.65;7.53;;;17.60;99.90;;;;;;5061478;28;20021;-75
2021/06/30 08:53:50;;;;;;;;;;;17.70;99.90;;;;;;5047046;28;20042;-76
2021/06/30 08:56:19;;;;;;;11.20;5.45;;;17.70;99.90;;;;;;5062231;28;20324;-75
2021/06/30 08:58:49;;;;;;;13.70;6.20;;;17.80;99.90;;;;;;5046552;28;20083;-76
2021/06/30 09:01:16;;;;;;;20.30;7.72;;;17.90;99.90;;;;;;5047904;28;20056;-74
2021/06/30 09:03:49;;;;;;;15.45;5.90;;;17.90;99.90;;;;;;5045720;28;20079;-75
2021/06/30 09:06:18;;;;;;;11.30;5.70;;;18.00;99.90;;;;;;5047091;28;20112;-76
2021/06/30 09:08:43;;;;;;;15.73;7.15;;;18.10;99.90;;;;;;5047318;28;20029;-73
2021/06/30 09:11:10;;;;;;;15.65;7.40;;;18.10;99.90;;;;;;5061769;28;20075;-74
2021/06/30 09:13:36;;;;;;;17.40;6.22;;;18.10;99.90;;;;;;5046712;28;20072;-73
2021/06/30 09:16:03;;;;;;;12.40;6.55;;;18.00;99.90;;;;;;5046042;28;20624;-73
2021/06/30 09:18:34;;;;;;;12.07;6.82;;;17.90;99.90;;;;;;5045972;28;20411;-72
2021/06/30 09:21:19;;;;;;;16.10;7.25;;;18.00;99.90;;;;;;5046809;28;20044;-73
2021/06/30 09:24:13;;;;;;;12.13;6.18;;;17.90;99.90;;;;;;5046523;28;20392;-73
2021/06/30 09:26:56;;;;;;;9.88;4.85;;;17.80;99.90;;;;;;5044206;28;20199;-76
2021/06/30 09:29:22;;;;;;;14.27;4.95;;;17.90;99.90;;;;;;5039167;28;20061;-77
2021/06/30 09:31:51;;;;;;;10.70;5.72;;;18.00;99.90;;;;;;5045967;28;20026;-74
2021/06/30 09:34:25;;;;;;;12.60;5.78;;;18.00;99.90;;;;;;5046571;28;20052;-72
2021/06/30 09:37:05;;;;;;;9.95;5.82;;;18.10;99.90;;;;;;5046786;28;20033;-73
2021/06/30 09:39:37;;;;;;;11.50;5.75;;;18.20;99.90;;;;;;5045165;28;20572;-75
2021/06/30 09:42:12;;;;;;;11.40;5.93;;;18.30;99.90;;;;;;5046361;28;20037;-71
2021/06/30 09:44:39;;;;;;;10.55;5.93;;;18.40;99.90;;;;;;5046160;28;20125;-70
2021/06/30 09:47:06;;;;;;;11.05;5.55;;;18.40;99.90;;;;;;5044763;28;20030;-70
2021/06/30 09:49:36;;;;;;;8.70;4.28;;;18.50;99.90;;;;;;5045507;28;20053;-69
2021/06/30 09:52:03;;;;;;;10.02;4.78;;;18.40;99.90;;;;;;5045738;28;20022;-70
2021/06/30 09:54:31;;;;;;;10.20;4.22;;;18.40;99.90;;;;;;5044453;28;20057;-71
2021/06/30 09:57:06;;;;;;;8.70;4.15;;;18.30;99.90;;;;;;5046087;28;20025;-69
2021/06/30 09:59:36;;;;;;;6.97;3.80;;;18.30;99.90;;;;;;5045738;28;20537;-69
2021/06/30 10:02:08;;;;;;;11.20;4.43;;;18.20;99.90;;;;;;5045657;28;20036;-71
2021/06/30 10:04:35;;;;;;;7.35;4.25;;;18.20;99.90;;;;;;5045983;28;20549;-68
2021/06/30 10:07:04;;;;;;;7.28;3.78;;;18.20;99.90;;;;;;5043793;28;20032;-72
2021/06/30 10:09:30;;;;;;;7.57;4.60;;;18.10;99.90;;;;;;5044832;28;20055;-77
2021/06/30 10:12:05;;;;;;;12.70;6.22;;;18.10;99.90;;;;;;5045815;28;20061;-72
2021/06/30 10:14:31;;;;;;;9.63;4.68;;;18.00;99.90;;;;;;5044390;28;20025;-72
2021/06/30 10:16:57;;;;;;;11.95;5.15;;;18.10;99.90;;;;;;5044032;28;20033;-74
2021/06/30 10:19:23;;;;;;;7.13;4.68;;;18.10;99.90;;;;;;5042985;28;20101;-72
2021/06/30 10:21:50;;;;;;;5.97;4.32;;;18.10;99.90;;;;;;5043359;28;20041;-71
2021/06/30 10:24:18;;;;;;;9.75;3.75;;;18.20;99.90;;;;;;5044726;28;20033;-72
2021/06/30 10:26:46;;;;;;;9.52;4.63;;;18.30;99.90;;;;;;5043905;28;20097;-71
2021/06/30 10:29:14;;;;;;;7.88;4.22;;;18.40;99.90;;;;;;5045122;28;20018;-74
2021/06/30 10:31:41;;;;;;;9.90;5.07;;;18.50;99.90;;;;;;5045278;28;20017;-78
2021/06/30 10:34:12;;;;;;;8.05;4.95;;;18.60;99.90;;;;;;5045191;28;20132;-71
2021/06/30 10:36:42;;;;;;;12.00;6.13;;;18.60;99.90;;;;;;5045155;28;20090;-71
2021/06/30 10:39:08;;;;;;;10.45;5.13;;;18.60;99.90;;;;;;5045433;28;20068;-71
2021/06/30 10:41:53;;;;;;;11.52;5.55;;;18.50;99.90;;;;;;5044928;28;20053;-69
2021/06/30 10:44:23;;;;;;;12.00;6.22;;;18.50;99.90;;;;;;5044827;28;20026;-74
2021/06/30 10:46:50;;;;;;;11.85;5.93;;;18.50;99.90;;;;;;5044784;28;20037;-70
2021/06/30 10:49:27;;;;;;;12.30;6.32;;;18.50;99.90;;;;;;5043955;28;20030;-70
2021/06/30 10:51:56;;;;;;;7.32;4.50;;;18.60;99.90;;;;;;5044501;28;20051;-71
2021/06/30 10:54:33;;;;;;;8.75;4.97;;;18.70;99.90;;;;;;5044037;28;20045;-71
2021/06/30 10:57:21;;;;;;;14.52;5.32;;;18.80;99.90;;;;;;5043929;28;20036;-70
2021/06/30 11:00:12;;;;;;;11.25;4.72;;;18.80;99.90;;;;;;5043261;28;20030;-69
2021/06/30 11:02:38;;;;;;;10.32;4.40;;;18.70;99.90;;;;;;5040416;28;20037;-71
2021/06/30 11:05:15;;;;;;;6.53;4.40;;;18.70;99.90;;;;;;5044782;28;20056;-72
2021/06/30 11:07:43;;;;;;;8.48;4.20;;;18.70;99.90;;;;;;5043635;28;20060;-72
2021/06/30 11:10:21;;;;;;;8.23;4.60;;;18.60;99.90;;;;;;5044743;28;20056;-73
2021/06/30 11:12:53;;;;;;;11.25;4.85;;;18.60;99.90;;;;;;5044822;28;20049;-74
2021/06/30 11:15:38;;;;;;;11.70;4.47;;;18.60;99.90;;;;;;5044292;28;20068;-72
2021/06/30 11:18:23;;;;;;;8.93;4.65;;;18.60;99.90;;;;;;5043757;28;20029;-71
2021/06/30 11:21:00;;;;;;;9.90;4.50;;;18.70;99.90;;;;;;5044009;28;20125;-72
2021/06/30 11:23:28;;;;;;;10.55;4.15;;;18.70;99.90;;;;;;5043958;28;20500;-71
2021/06/30 11:25:55;;;;;;;5.70;4.30;;;18.70;99.90;;;;;;5043941;28;20024;-70
2021/06/30 11:28:35;;;;;;;5.85;3.83;;;18.60;99.90;;;;;;5042818;28;20128;-73
2021/06/30 11:31:26;;;;;;;10.60;4.03;;;18.60;99.90;;;;;;5044477;28;20029;-74
2021/06/30 11:34:08;;;;;;;7.55;4.35;;;18.60;99.90;;;;;;5043387;28;20363;-72
2021/06/30 11:36:37;;;;;;;7.75;4.70;;;18.60;99.90;;;;;;5044748;28;20055;-75
2021/06/30 11:39:12;;;;;;;10.35;5.45;;;18.60;99.90;;;;;;5023823;28;20026;-70
2021/06/30 11:41:51;;;;;;;8.48;4.53;;;18.50;99.90;;;;;;5024023;28;20544;-72
2021/06/30 11:44:21;;;;;;;8.52;4.72;;;18.50;99.90;;;;;;5024397;28;20443;-70
2021/06/30 11:46:51;;;;;;;7.00;4.45;;;18.50;99.90;;;;;;5024288;28;20471;-73
2021/06/30 11:49:19;;;;;;;10.40;4.85;;;18.60;99.90;;;;;;5025012;28;20160;-69
2021/06/30 11:51:58;;;;;;;10.93;5.35;;;18.60;99.90;;;;;;5032555;28;20023;-71
2021/06/30 11:54:26;;;;;;;12.15;5.47;;;18.70;99.90;;;;;;5043856;28;20049;-74
2021/06/30 11:56:53;;;;;;;9.88;4.60;;;18.70;99.90;;;;;;5043845;28;20028;-72
2021/06/30 11:59:24;;;;;;;10.02;4.88;;;18.60;99.90;;;;;;5042639;28;20038;-74
2021/06/30 12:01:50;;;;;;;14.65;4.78;;;18.60;99.90;;;;;;5044033;28;20041;-72
2021/06/30 12:04:22;;;;;;;14.38;5.43;;;18.60;99.90;;;;;;5042829;28;20055;-73
2021/06/30 12:06:54;;;;;;;8.45;4.63;;;18.60;99.90;;;;;;5039376;28;20041;-69
2021/06/30 12:09:25;;;;;;;9.57;5.63;;;18.60;99.90;;;;;;5024102;28;20030;-74
2021/06/30 12:12:02;;;;;;;10.75;4.55;;;18.70;99.90;;;;;;5023904;28;20040;-70
2021/06/30 12:14:31;;;;;;;7.68;4.15;;;18.70;99.90;;;;;;5024321;28;20402;-72
2021/06/30 12:17:04;;;;;;;8.52;5.38;;;18.70;99.90;;;;;;5024201;28;20122;-72
2021/06/30 12:19:34;;;;;;;8.93;5.22;;;18.60;99.90;;;;;;5023771;28;20018;-71
2021/06/30 12:22:31;;;;;;;9.18;5.50;;;18.60;99.90;;;;;;5041836;28;20124;-72
2021/06/30 12:25:00;;;;;;;8.90;5.07;;;18.60;99.90;;;;;;5041409;28;20025;-73
2021/06/30 12:27:51;;;;;;;14.05;6.82;;;18.70;99.90;;;;;;5042450;28;20089;-73
2021/06/30 12:30:21;;;;;;;9.68;5.30;;;18.80;99.90;;;;;;5043524;28;20025;-72
2021/06/30 12:32:52;;;;;;;8.40;5.45;;;18.80;99.90;;;;;;5043235;28;20367;-73
2021/06/30 12:35:24;;;;;;;15.00;6.45;;;18.90;99.90;;;;;;5043282;28;20032;-74
2021/06/30 12:38:21;;;;;;;11.60;5.43;;;18.90;99.90;;;;;;5043214;28;20025;-70
2021/06/30 12:40:47;;;;;;;12.23;6.40;;;18.90;99.90;;;;;;5042747;28;20045;-72